logo
Rechercher aéroport 
image banner adimage banner adimage banner ad
image banner ad

EYIG - Ignalina

Situé à Ignalina, Lithuania

ICAO - , IATA -

Données fournies par Airmate  

Information générale

Coordonnées: N55°14'39" E26°10'20"
Élévation : 558 feet MSL.
Variation magnétique : 8° East
Voir autres Aéroports à Utena County

Données opérationnelles

Special qualification required
Heure actuelle UTC:
Heure actuelle locale:
Météo à : - ( 0 km )
METAR: SUMU 230008Z 14005KT 4000 -DZ BR OVC003 13/13 Q1014 NOSIG
Voir NOTAMs / SUP AIP / TFR affectant cet aéroport [VIEW]
Fréquences de communication: [VIEW]

Pistes:

Identifiant RWYQFULongueur (ft)Largeur (ft)SurfaceLDA (ft)
0782°1969131GRASS
25262°1969131GRASS

Coordonnées de l'aéroport

Adresse: Ignalina Lithuania

Vue satellite de EYIG